Terminal Aerodrome Forecast
Issued by NWS

Home | Current Version | Previous Version | Text Only | Print | Product List | Glossary On
Versions: 1 2 3 4 5 6 7 8 9 10 11 12
335
FTUS45 KGGW 222320
TAFSDY
TAF
KSDY 222320Z 2300/2324 35009KT P6SM FEW020 OVC060
     FM230600 33004KT P6SM BKN035
     FM231200 VRB04KT P6SM OVC025
     FM232100 05005KT P6SM VCSH OVC040=

USA.gov is the U.S. government's official web portal to all federal, state and local government web resources and services.